Time;durP1;ratioP1;P1;durP2;ratioP2;P2;SDS_P1;SDS_P2;PMS_P1;PMS_P2;Temp;Humidity;BMP_temperature;BMP_pressure;BME280_temperature;BME280_humidity;BME280_pressure;Samples;Min_cycle;Max_cycle;Signal;HPM_P1;HPM_P2
2023/10/10 00:01:20;;;;;;;2.53;1.53;;;;;;;18.57;70.30;95986.19;4394134;32;20197;-61
2023/10/10 00:03:49;;;;;;;2.40;2.00;;;;;;;18.51;71.45;95982.88;4391350;32;20188;-61
2023/10/10 00:06:14;;;;;;;4.33;1.23;;;;;;;18.48;71.85;95980.09;4386381;32;20245;-62
2023/10/10 00:08:50;;;;;;;9.13;1.90;;;;;;;18.40;72.51;95986.31;4390720;32;20359;-61
2023/10/10 00:11:18;;;;;;;3.67;1.83;;;;;;;18.39;71.31;95990.88;4398036;32;20183;-61
2023/10/10 00:14:29;;;;;;;16.50;1.77;;;;;;;18.38;71.77;95996.59;4399167;32;20223;-61
2023/10/10 00:16:36;;;;;;;2.97;0.90;;;;;;;18.40;73.56;95984.41;4390256;32;20188;-61
2023/10/10 00:19:29;;;;;;;1.63;1.53;;;;;;;18.32;73.79;95995.97;4397060;32;20211;-61
2023/10/10 00:21:55;;;;;;;3.07;2.23;;;;;;;18.29;74.04;95983.19;4378534;32;20180;-62
2023/10/10 00:24:30;;;;;;;3.33;1.93;;;;;;;18.27;72.32;95979.28;4383761;32;20188;-61
2023/10/10 00:27:06;;;;;;;1.70;1.27;;;;;;;18.26;73.10;95981.19;4384682;32;20183;-62
2023/10/10 00:29:33;;;;;;;2.63;1.53;;;;;;;18.18;73.41;95976.66;4383632;32;20192;-62
2023/10/10 00:32:09;;;;;;;1.10;1.03;;;;;;;18.24;73.63;95978.03;4396885;32;20238;-61
2023/10/10 00:34:36;;;;;;;1.40;1.27;;;;;;;18.20;72.88;95974.41;4391330;32;20196;-62
2023/10/10 00:37:13;;;;;;;2.37;1.63;;;;;;;18.15;74.25;95971.91;4379472;32;20184;-62
2023/10/10 00:39:38;;;;;;;5.73;2.33;;;;;;;18.14;75.02;95973.03;4376940;32;20325;-61
2023/10/10 00:42:05;;;;;;;2.00;1.13;;;;;;;18.10;74.97;95967.50;4382757;32;20184;-62
2023/10/10 00:44:31;;;;;;;1.80;0.63;;;;;;;18.10;75.01;95972.09;4379733;32;20192;-62
2023/10/10 00:47:03;;;;;;;1.33;1.13;;;;;;;18.07;74.84;95962.03;4384128;32;20199;-62
2023/10/10 00:49:34;;;;;;;1.53;1.20;;;;;;;18.10;74.34;95964.03;4399673;32;20242;-62
2023/10/10 00:52:02;;;;;;;1.30;1.20;;;;;;;18.12;73.54;95964.50;4380527;32;20287;-61
2023/10/10 00:54:31;;;;;;;9.63;2.43;;;;;;;18.06;74.16;95961.25;4374541;32;20196;-62
2023/10/10 00:56:59;;;;;;;1.47;1.33;;;;;;;18.14;73.42;95964.97;4366793;32;20246;-62
2023/10/10 00:59:42;;;;;;;7.37;1.53;;;;;;;18.12;74.26;95956.44;4390094;32;20252;-61
2023/10/10 01:02:10;;;;;;;1.07;0.90;;;;;;;18.03;74.02;95963.78;4388690;32;20210;-62
2023/10/10 01:05:12;;;;;;;1.40;1.20;;;;;;;17.99;75.15;95955.59;4375992;32;20196;-62
2023/10/10 01:07:34;;;;;;;7.83;1.43;;;;;;;18.00;75.03;95965.22;4370894;32;20199;-62
2023/10/10 01:10:12;;;;;;;2.57;1.30;;;;;;;17.91;75.71;95958.31;4388266;32;20241;-62
2023/10/10 01:12:39;;;;;;;2.07;1.50;;;;;;;17.87;76.03;95962.78;4388095;32;20172;-62
2023/10/10 01:15:16;;;;;;;1.30;1.20;;;;;;;17.89;74.95;95955.16;4406319;32;20255;-61
2023/10/10 01:17:43;;;;;;;4.13;2.10;;;;;;;17.94;74.91;95952.28;4409010;32;20222;-62
2023/10/10 01:20:33;;;;;;;2.90;1.80;;;;;;;17.95;74.92;95946.59;4370017;32;20287;-61
2023/10/10 01:23:00;;;;;;;2.40;1.70;;;;;;;17.97;73.91;95948.97;4375379;32;20215;-62
2023/10/10 01:28:46;;;;;;;2.00;1.00;;;;;;;17.85;73.57;95947.78;4392167;32;20222;-62
2023/10/10 01:30:58;;;;;;;2.40;1.30;;;;;;;17.87;74.94;95952.81;4379936;32;20267;-61
2023/10/10 01:33:47;;;;;;;1.70;1.60;;;;;;;17.82;74.68;95956.47;4386376;32;20187;-61
2023/10/10 01:36:16;;;;;;;2.47;1.97;;;;;;;17.79;75.67;95953.63;4392297;32;20247;-62
2023/10/10 01:38:55;;;;;;;2.00;1.90;;;;;;;17.80;75.14;95947.16;4369294;32;20214;-62
2023/10/10 01:41:31;;;;;;;1.00;1.00;;;;;;;17.90;74.88;95941.41;4386270;32;20210;-61
2023/10/10 01:44:17;;;;;;;5.67;0.73;;;;;;;17.82;74.57;95943.06;4370970;32;20191;-61
2023/10/10 01:46:43;;;;;;;8.23;1.77;;;;;;;17.87;75.31;95945.53;4386826;32;20196;-62
2023/10/10 01:49:19;;;;;;;1.50;1.40;;;;;;;17.84;73.25;95945.41;4380169;32;20318;-62
2023/10/10 01:51:54;;;;;;;1.13;1.00;;;;;;;17.85;74.79;95945.09;4397400;32;20203;-62
2023/10/10 01:54:23;;;;;;;1.60;1.40;;;;;;;17.78;74.85;95944.81;4380146;32;20257;-61
2023/10/10 01:56:56;;;;;;;6.43;1.53;;;;;;;17.74;75.13;95946.56;4402077;32;20204;-60
2023/10/10 01:59:25;;;;;;;1.83;1.60;;;;;;;17.72;75.74;95947.97;4393262;32;20200;-62
2023/10/10 02:01:57;;;;;;;2.03;1.50;;;;;;;17.70;76.04;95942.16;4390015;32;20250;-62
2023/10/10 02:04:34;;;;;;;1.63;1.40;;;;;;;17.68;76.93;95944.38;4387022;32;20189;-62
2023/10/10 02:07:13;;;;;;;2.10;1.80;;;;;;;17.70;75.68;95940.25;4381627;32;20220;-62
2023/10/10 02:09:43;;;;;;;2.00;1.80;;;;;;;17.70;75.88;95945.63;4388848;32;20271;-62
2023/10/10 02:12:15;;;;;;;2.10;1.33;;;;;;;17.77;75.18;95943.22;4389898;32;20291;-62
2023/10/10 02:14:44;;;;;;;1.33;1.23;;;;;;;17.75;75.25;95941.97;4388729;32;20196;-62
2023/10/10 02:17:27;;;;;;;1.43;1.33;;;;;;;17.62;75.30;95930.34;4346883;32;20246;-61
2023/10/10 02:23:22;;;;;;;3.07;2.00;;;;;;;17.64;75.44;95938.87;4332454;32;20256;-62
2023/10/10 02:25:46;;;;;;;6.13;1.77;;;;;;;17.53;76.29;95940.31;4346810;32;20180;-61
2023/10/10 02:30:41;;;;;;;6.37;1.90;;;;;;;17.57;75.46;95938.56;4336817;32;20294;-61
2023/10/10 02:36:07;;;;;;;2.10;1.63;;;;;;;17.60;75.28;95937.13;4384699;32;20183;-62
2023/10/10 02:38:34;;;;;;;4.93;2.37;;;;;;;17.48;76.43;95929.75;4393626;32;20176;-62
2023/10/10 02:41:38;;;;;;;1.47;1.37;;;;;;;17.54;75.37;95923.09;4383628;32;20239;-61
2023/10/10 02:44:09;;;;;;;1.70;1.37;;;;;;;17.36;74.75;95932.31;4361063;32;20184;-61
2023/10/10 02:46:42;;;;;;;8.27;1.67;;;;;;;17.39;75.66;95932.47;4392611;32;20183;-61
2023/10/10 02:51:58;;;;;;;1.37;1.27;;;;;;;17.44;76.65;95931.50;4404931;32;20200;-61
2023/10/10 02:56:56;;;;;;;0.60;0.60;;;;;;;17.50;76.46;95933.69;4374407;32;20231;-61
2023/10/10 02:59:32;;;;;;;2.20;1.47;;;;;;;17.42;76.68;95933.72;4397782;32;20214;-61
2023/10/10 03:02:08;;;;;;;0.50;0.50;;;;;;;17.46;77.14;95937.31;4355399;32;20180;-62
2023/10/10 03:07:27;;;;;;;3.80;1.23;;;;;;;17.40;77.46;95939.41;4376484;32;20215;-61
2023/10/10 03:12:42;;;;;;;2.03;1.83;;;;;;;17.50;77.01;95938.25;4398993;32;20253;-62
2023/10/10 03:23:19;;;;;;;7.00;2.77;;;;;;;17.37;77.69;95941.94;4386735;32;20196;-62
2023/10/10 03:25:54;;;;;;;2.03;1.57;;;;;;;17.24;76.46;95940.25;4400285;32;20196;-62
2023/10/10 03:28:34;;;;;;;4.57;1.40;;;;;;;17.35;78.09;95944.16;4355723;32;20199;-62
2023/10/10 03:33:44;;;;;;;1.73;1.30;;;;;;;17.25;75.67;95942.59;4406498;32;20192;-62
2023/10/10 03:36:31;;;;;;;2.23;1.07;;;;;;;17.21;76.98;95935.53;4391714;32;20267;-62
2023/10/10 03:39:15;;;;;;;4.20;1.90;;;;;;;17.33;77.61;95939.13;4383384;32;20279;-62
2023/10/10 05:23:49;;;;;;;3.93;1.27;;;;;;;16.78;79.86;95945.22;4376983;32;20218;-62
2023/10/10 05:26:19;;;;;;;9.03;2.27;;;;;;;16.50;78.80;95950.09;4390805;32;20225;-63
2023/10/10 05:28:47;;;;;;;5.10;2.30;;;;;;;16.64;79.85;95946.47;4405565;32;20187;-62
2023/10/10 05:31:18;;;;;;;9.20;2.13;;;;;;;16.75;79.81;95955.78;4369073;32;20203;-62
2023/10/10 05:33:47;;;;;;;2.77;2.10;;;;;;;16.73;79.52;95948.06;4393514;32;20185;-61
2023/10/10 05:36:13;;;;;;;3.77;2.07;;;;;;;16.83;79.73;95952.31;4405242;32;20228;-62
2023/10/10 05:38:41;;;;;;;6.57;2.43;;;;;;;16.79;78.89;95960.22;4373467;32;20285;-62
2023/10/10 05:41:07;;;;;;;1.30;1.30;;;;;;;16.80;79.89;95958.31;4385388;32;20208;-62
2023/10/10 05:43:34;;;;;;;3.83;1.33;;;;;;;16.79;79.32;95962.09;4405374;32;20192;-62
2023/10/10 05:46:03;;;;;;;5.40;1.60;;;;;;;16.80;79.47;95963.69;4407777;32;20187;-61
2023/10/10 05:48:35;;;;;;;1.00;1.00;;;;;;;16.64;80.22;95970.59;4395647;32;20194;-62
2023/10/10 05:51:03;;;;;;;1.87;1.70;;;;;;;16.65;80.43;95964.13;4387711;32;20299;-61
2023/10/10 05:53:33;;;;;;;10.93;2.37;;;;;;;16.70;79.61;95969.34;4406090;32;20244;-62
2023/10/10 05:56:12;;;;;;;1.20;1.20;;;;;;;16.48;79.92;95972.94;4395514;32;20183;-61
2023/10/10 05:58:38;;;;;;;1.80;1.70;;;;;;;16.55;80.81;95965.22;4398415;32;20175;-61
2023/10/10 06:01:03;;;;;;;6.33;2.03;;;;;;;16.66;80.87;95971.06;4398205;32;20330;-62
2023/10/10 06:03:31;;;;;;;3.50;2.07;;;;;;;16.48;79.64;95978.28;4383680;32;20188;-61
2023/10/10 06:05:58;;;;;;;6.13;2.07;;;;;;;16.58;81.14;95966.50;4403650;32;20184;-61
2023/10/10 06:08:25;;;;;;;3.20;2.03;;;;;;;16.68;81.12;95977.69;4389784;32;20184;-61
2023/10/10 06:10:53;;;;;;;9.53;2.27;;;;;;;16.66;80.96;95979.09;4374964;32;20188;-62
2023/10/10 06:13:19;;;;;;;3.57;2.30;;;;;;;16.64;81.96;95976.75;4397017;32;20199;-62
2023/10/10 06:15:50;;;;;;;1.93;1.83;;;;;;;16.64;82.47;95976.75;4418646;32;20184;-62
2023/10/10 06:18:17;;;;;;;1.57;1.43;;;;;;;16.69;82.18;95967.75;4404047;32;20220;-62
2023/10/10 06:20:48;;;;;;;1.97;1.87;;;;;;;16.76;81.67;95974.22;4390034;32;20206;-62
2023/10/10 06:23:15;;;;;;;5.40;1.97;;;;;;;16.82;81.95;95977.56;4401154;32;20218;-62
2023/10/10 06:25:42;;;;;;;2.23;2.03;;;;;;;16.76;82.45;95978.81;4401879;32;20206;-61
2023/10/10 06:28:26;;;;;;;3.40;2.33;;;;;;;16.74;82.25;95979.13;4387373;32;20187;-62
2023/10/10 06:30:56;;;;;;;4.73;2.03;;;;;;;16.81;82.08;95984.00;4389705;32;20243;-61
2023/10/10 06:33:28;;;;;;;2.80;2.37;;;;;;;16.82;82.03;95980.22;4398188;32;20208;-61
2023/10/10 06:38:46;;;;;;;1.60;1.50;;;;;;;16.81;81.91;95981.34;4396111;32;20184;-61
2023/10/10 06:41:17;;;;;;;2.00;1.63;;;;;;;16.83;81.87;95989.84;4398370;32;20332;-61
2023/10/10 06:43:47;;;;;;;1.17;1.13;;;;;;;16.78;82.01;95988.09;4397030;32;20248;-61
2023/10/10 06:46:17;;;;;;;1.87;1.70;;;;;;;16.82;82.11;95989.06;4386227;32;20188;-61
2023/10/10 06:48:47;;;;;;;2.20;2.03;;;;;;;16.90;82.83;95994.72;4392341;32;20221;-61
2023/10/10 06:51:22;;;;;;;2.30;2.10;;;;;;;16.89;81.76;95988.56;4385822;32;20202;-61
2023/10/10 06:53:54;;;;;;;1.70;1.53;;;;;;;16.90;81.45;95992.81;4384668;32;20187;-61
2023/10/10 06:56:43;;;;;;;1.80;1.70;;;;;;;16.82;81.78;95991.75;4398591;32;20255;-61
2023/10/10 06:59:20;;;;;;;1.50;1.50;;;;;;;16.90;82.01;95990.13;4385756;32;20180;-61
2023/10/10 07:01:46;;;;;;;2.57;1.33;;;;;;;16.88;82.43;95992.34;4371541;32;20188;-61
2023/10/10 07:04:13;;;;;;;1.60;1.50;;;;;;;16.92;82.41;95990.63;4393337;32;20333;-61
2023/10/10 07:06:47;;;;;;;2.57;2.07;;;;;;;16.92;83.35;95995.19;4398285;32;20295;-61
2023/10/10 07:09:14;;;;;;;3.83;2.20;;;;;;;16.84;83.00;95997.53;4399091;32;20188;-61
2023/10/10 07:11:49;;;;;;;2.13;1.83;;;;;;;16.94;82.92;95995.66;4364822;32;20273;-61
2023/10/10 07:14:16;;;;;;;1.50;1.40;;;;;;;17.04;82.89;95996.09;4374770;32;20195;-61
2023/10/10 07:16:46;;;;;;;7.63;1.23;;;;;;;16.98;82.78;95997.41;4387637;32;20204;-61
2023/10/10 07:19:29;;;;;;;4.47;1.27;;;;;;;17.09;82.83;95997.84;4378233;32;20271;-62
2023/10/10 07:21:54;;;;;;;10.87;2.43;;;;;;;17.10;83.02;95992.16;4390256;32;20195;-61
2023/10/10 07:24:28;;;;;;;16.03;1.80;;;;;;;17.12;81.49;96007.94;4386601;32;20190;-61
2023/10/10 07:27:04;;;;;;;5.03;1.17;;;;;;;17.16;82.38;95998.94;4394590;32;20187;-61
2023/10/10 07:30:18;;;;;;;1.93;1.53;;;;;;;17.09;82.04;96008.56;4405273;32;20179;-61
2023/10/10 07:32:28;;;;;;;9.40;1.60;;;;;;;17.14;82.91;96003.06;4389546;32;20200;-61
2023/10/10 07:34:55;;;;;;;7.53;1.70;;;;;;;17.17;81.57;95995.16;4391817;32;20276;-61
2023/10/10 07:37:28;;;;;;;13.77;11.07;;;;;;;17.20;82.50;96001.00;4389899;32;20272;-61
2023/10/10 07:40:19;;;;;;;4.20;3.90;;;;;;;17.22;82.17;96001.47;4405314;32;20186;-61
2023/10/10 07:43:03;;;;;;;5.27;3.93;;;;;;;17.23;82.69;96001.16;4391738;32;20196;-61
2023/10/10 07:50:46;;;;;;;4.10;2.93;;;;;;;17.42;81.00;96004.25;4380001;32;20246;-61
2023/10/10 07:53:13;;;;;;;2.60;2.40;;;;;;;17.44;80.85;96010.09;4381171;32;20232;-61
2023/10/10 07:58:36;;;;;;;8.97;5.93;;;;;;;17.51;80.88;96009.59;4386647;32;20237;-61
2023/10/10 08:01:10;;;;;;;5.50;3.57;;;;;;;17.59;77.19;96010.69;4390165;32;20191;-61
2023/10/10 08:03:37;;;;;;;8.97;3.87;;;;;;;17.67;77.45;96018.72;4403787;32;20240;-61
2023/10/10 08:06:08;;;;;;;4.57;4.17;;;;;;;17.71;78.58;96014.28;4370361;32;20256;-61
2023/10/10 08:08:41;;;;;;;9.90;4.07;;;;;;;17.71;77.40;96018.88;4374825;32;20235;-61
2023/10/10 08:11:24;;;;;;;3.30;2.57;;;;;;;17.81;79.76;96005.91;4394827;32;20196;-61
2023/10/10 08:13:50;;;;;;;1.67;1.57;;;;;;;17.81;78.30;96013.94;4396236;32;20211;-62
2023/10/10 08:16:29;;;;;;;3.17;2.80;;;;;;;17.83;76.39;96005.56;4379476;32;20184;-61
2023/10/10 08:18:55;;;;;;;1.43;1.33;;;;;;;17.86;76.27;96010.31;4360893;32;20188;-62
2023/10/10 08:21:22;;;;;;;2.00;1.30;;;;;;;17.95;74.91;96018.31;4391090;32;20268;-61
2023/10/10 08:23:56;;;;;;;3.73;2.37;;;;;;;18.02;75.32;96018.59;4390815;32;20233;-61
2023/10/10 08:26:26;;;;;;;8.30;3.00;;;;;;;18.06;75.29;96017.63;4366239;32;20211;-61
2023/10/10 08:28:53;;;;;;;1.50;1.40;;;;;;;18.14;74.72;96021.38;4377518;32;20184;-61
2023/10/10 08:31:19;;;;;;;3.20;1.77;;;;;;;18.15;73.33;96012.19;4383452;32;20207;-61
2023/10/10 08:33:48;;;;;;;1.67;1.57;;;;;;;18.19;74.32;96013.94;4377443;32;20196;-61
2023/10/10 08:36:23;;;;;;;2.13;1.93;;;;;;;18.25;72.87;96014.53;4377151;32;20202;-61
2023/10/10 08:42:10;;;;;;;2.20;2.00;;;;;;;18.29;73.12;96017.38;4304855;33;20249;-61
2023/10/10 08:44:39;;;;;;;1.53;1.40;;;;;;;18.40;70.09;96030.09;4328203;33;20229;-61
2023/10/10 08:47:16;;;;;;;2.20;1.93;;;;;;;18.51;69.81;96025.09;4327939;32;20188;-61
2023/10/10 08:49:57;;;;;;;0.90;0.90;;;;;;;18.52;68.50;96026.69;4396232;32;20217;-61
2023/10/10 08:52:24;;;;;;;2.03;1.93;;;;;;;18.52;71.20;96029.37;4395488;32;20228;-61
2023/10/10 08:55:11;;;;;;;1.63;1.53;;;;;;;18.58;67.47;96027.28;4397126;32;20343;-61
2023/10/10 08:57:38;;;;;;;1.87;1.77;;;;;;;18.71;68.69;96026.25;4375535;32;20193;-60
2023/10/10 09:00:11;;;;;;;1.03;1.00;;;;;;;18.80;66.98;96027.78;4387265;32;20199;-63
2023/10/10 09:02:55;;;;;;;3.97;2.03;;;;;;;18.91;66.24;96028.19;4386561;32;20198;-61
2023/10/10 09:05:41;;;;;;;1.47;1.40;;;;;;;18.92;65.59;96024.34;4392385;32;20188;-61
2023/10/10 09:08:14;;;;;;;2.03;1.53;;;;;;;19.00;65.67;96020.81;4392346;32;20214;-60
2023/10/10 09:10:46;;;;;;;0.97;0.97;;;;;;;19.26;75.07;96023.28;4353163;32;20275;-59
2023/10/10 09:13:12;;;;;;;1.30;1.30;;;;;;;19.41;77.21;96021.87;4398929;32;20188;-60
2023/10/10 09:15:55;;;;;;;1.37;1.37;;;;;;;19.43;75.91;96023.09;4397470;32;20207;-60
2023/10/10 09:18:26;;;;;;;6.70;1.87;;;;;;;19.41;75.11;96022.66;4344342;32;20223;-60
2023/10/10 09:21:18;;;;;;;3.80;2.03;;;;;;;19.45;74.79;96026.25;4387044;32;20279;-60
2023/10/10 09:23:52;;;;;;;1.70;1.60;;;;;;;19.55;71.89;96023.16;4387648;32;20204;-60
2023/10/10 09:28:59;;;;;;;2.27;1.80;;;;;;;19.58;71.28;96021.72;4401864;32;20192;-60
2023/10/10 09:31:26;;;;;;;1.20;1.20;;;;;;;19.59;70.06;96025.97;4395889;32;20192;-60
2023/10/10 09:34:12;;;;;;;1.23;1.20;;;;;;;19.57;69.84;96033.59;4413812;32;20179;-59
2023/10/10 09:36:58;;;;;;;44.27;2.30;;;;;;;19.45;67.79;96026.25;4407679;32;20180;-59
2023/10/10 09:39:43;;;;;;;4.40;2.07;;;;;;;19.54;68.52;96036.94;4408126;32;20195;-59
2023/10/10 09:42:43;;;;;;;1.00;1.00;;;;;;;19.61;68.61;96029.13;4392997;32;20189;-59
2023/10/10 09:52:47;;;;;;;1.30;1.30;;;;;;;19.67;67.93;96027.00;4345384;32;20216;-59
2023/10/10 09:54:15;;;;;;;3.40;1.80;;;;;;;19.66;67.35;96028.91;4405221;32;20180;-59
2023/10/10 09:56:50;;;;;;;1.00;0.90;;;;;;;19.68;67.32;96028.59;4363894;32;20260;-59
2023/10/10 09:59:37;;;;;;;2.10;1.37;;;;;;;19.66;66.43;96023.53;4384083;32;20189;-60
2023/10/10 10:02:04;;;;;;;0.90;0.90;;;;;;;19.67;67.88;96035.88;4367463;32;20218;-60
2023/10/10 10:05:03;;;;;;;1.83;1.73;;;;;;;19.68;64.74;96029.37;4360101;32;20215;-59
2023/10/10 10:08:13;;;;;;;4.77;1.37;;;;;;;19.70;66.98;96037.91;4404395;32;20197;-60
2023/10/10 10:10:56;;;;;;;1.27;1.27;;;;;;;19.77;66.92;96037.34;4384340;32;20184;-60
2023/10/10 10:13:57;;;;;;;1.13;1.13;;;;;;;19.77;67.10;96034.66;4375333;32;20188;-60
2023/10/10 10:17:12;;;;;;;1.73;1.63;;;;;;;19.76;66.35;96025.78;4378583;32;20191;-61
2023/10/10 10:19:45;;;;;;;2.07;1.70;;;;;;;19.71;62.34;96028.72;4377979;32;20184;-62
2023/10/10 10:22:31;;;;;;;1.23;1.13;;;;;;;19.81;58.19;96033.66;4361550;32;20188;-62
2023/10/10 10:25:32;;;;;;;1.03;1.03;;;;;;;20.05;54.41;96029.41;4390747;32;20192;-62
2023/10/10 10:28:14;;;;;;;1.87;1.77;;;;;;;20.23;52.86;96028.06;4393584;32;20199;-61
2023/10/10 10:30:53;;;;;;;0.90;0.90;;;;;;;20.25;52.45;96032.00;4371215;32;20274;-61
2023/10/10 10:33:34;;;;;;;0.90;0.90;;;;;;;20.38;49.71;96030.09;4372280;32;20298;-61
2023/10/10 10:36:17;;;;;;;1.23;1.13;;;;;;;20.51;49.87;96033.59;4383638;32;20237;-61
2023/10/10 10:41:51;;;;;;;1.40;1.30;;;;;;;20.50;50.91;96022.00;4336077;32;20317;-62
2023/10/10 10:44:46;;;;;;;2.00;1.37;;;;;;;20.47;49.12;96022.69;4367919;32;20219;-62
2023/10/10 10:47:45;;;;;;;9.43;2.03;;;;;;;20.39;50.42;96025.50;4370177;32;20183;-61
2023/10/10 10:50:42;;;;;;;1.50;1.40;;;;;;;20.52;49.36;96030.56;4354945;32;20192;-62
2023/10/10 10:53:50;;;;;;;1.30;1.23;;;;;;;20.56;49.95;96028.75;4379052;32;20222;-61
2023/10/10 10:56:37;;;;;;;1.80;1.70;;;;;;;20.63;48.04;96024.69;4380273;32;20184;-61
2023/10/10 10:59:19;;;;;;;7.43;1.50;;;;;;;20.65;48.95;96015.13;4371577;32;20168;-61
2023/10/10 11:01:56;;;;;;;3.00;2.40;;;;;;;20.54;51.73;96022.91;4380364;32;20210;-61
2023/10/10 11:04:47;;;;;;;4.13;1.40;;;;;;;20.46;51.56;96017.63;4373783;32;20194;-62
2023/10/10 11:07:46;;;;;;;2.93;2.43;;;;;;;20.52;49.56;96017.06;4409682;32;20194;-62
2023/10/10 11:10:10;;;;;;;15.17;1.87;;;;;;;20.59;48.08;96014.56;4397389;32;20187;-62
2023/10/10 11:12:49;;;;;;;2.20;1.40;;;;;;;20.77;45.86;96004.31;4393905;32;20238;-62
2023/10/10 11:15:16;;;;;;;2.60;2.40;;;;;;;20.84;46.00;96014.50;4397632;32;20233;-62
2023/10/10 11:18:07;;;;;;;2.03;1.57;;;;;;;20.76;46.30;96016.25;4404575;32;20188;-62
2023/10/10 11:21:08;;;;;;;6.57;5.97;;;;;;;20.74;46.84;96001.53;4399183;32;20184;-63
2023/10/10 11:23:48;;;;;;;1.03;1.03;;;;;;;20.68;46.09;95997.50;4393495;32;20184;-63
2023/10/10 11:26:35;;;;;;;1.60;1.50;;;;;;;20.84;45.73;95996.41;4405518;32;20202;-63
2023/10/10 11:29:27;;;;;;;1.60;1.53;;;;;;;20.84;47.21;95998.34;4383508;32;20213;-63
2023/10/10 11:32:08;;;;;;;4.43;1.67;;;;;;;20.90;46.04;95992.37;4391412;32;20184;-63
2023/10/10 11:34:49;;;;;;;1.37;1.27;;;;;;;20.93;45.87;95982.81;4389097;32;20202;-63
2023/10/10 11:37:32;;;;;;;2.83;1.57;;;;;;;20.93;47.78;95988.19;4375079;32;20183;-63
2023/10/10 11:42:54;;;;;;;5.87;2.63;;;;;;;20.91;45.64;95985.84;4372714;32;20188;-63
2023/10/10 11:45:27;;;;;;;2.03;1.53;;;;;;;20.99;46.60;95984.09;4356543;32;20200;-63
2023/10/10 11:48:05;;;;;;;6.23;2.43;;;;;;;20.98;45.67;95971.78;4387383;32;20183;-62
2023/10/10 11:50:50;;;;;;;2.07;1.97;;;;;;;20.99;46.69;95972.56;4378934;32;20193;-63
2023/10/10 11:53:23;;;;;;;5.83;2.83;;;;;;;21.02;46.28;95963.75;4401713;32;20187;-63
2023/10/10 11:56:11;;;;;;;1.87;1.73;;;;;;;20.89;46.88;95963.03;4405513;32;20203;-63
2023/10/10 11:58:37;;;;;;;1.93;1.73;;;;;;;20.92;46.41;95962.34;4406558;32;20180;-62
2023/10/10 12:01:10;;;;;;;4.27;2.33;;;;;;;21.06;46.28;95951.94;4391053;32;20252;-63
2023/10/10 12:03:44;;;;;;;9.70;3.83;;;;;;;21.00;47.24;95952.50;4340740;32;20214;-63
2023/10/10 12:06:14;;;;;;;1.73;1.20;;;;;;;20.98;47.09;95950.19;4373845;32;20298;-63
2023/10/10 12:08:52;;;;;;;7.17;1.77;;;;;;;21.07;46.35;95960.81;4373850;32;20184;-63
2023/10/10 12:11:25;;;;;;;1.83;1.73;;;;;;;20.98;47.42;95954.81;4373136;32;20196;-63
2023/10/10 12:13:54;;;;;;;1.87;1.77;;;;;;;21.02;47.64;95955.66;4402577;32;20199;-63
2023/10/10 12:16:40;;;;;;;1.10;1.10;;;;;;;20.96;47.37;95957.84;4405760;32;20381;-62
2023/10/10 12:19:28;;;;;;;1.40;1.30;;;;;;;21.10;48.43;95947.41;4388668;32;20199;-61
2023/10/10 12:22:17;;;;;;;1.50;1.40;;;;;;;21.00;47.46;95941.72;4336280;32;20205;-61
2023/10/10 12:24:59;;;;;;;1.67;1.57;;;;;;;20.97;47.03;95940.53;4403814;32;20241;-62
2023/10/10 12:27:30;;;;;;;1.87;1.60;;;;;;;20.95;46.42;95940.09;4373525;32;20189;-62
2023/10/10 12:30:04;;;;;;;1.23;1.13;;;;;;;21.07;45.15;95933.84;4395747;32;20180;-62
2023/10/10 12:32:51;;;;;;;0.97;0.97;;;;;;;21.12;45.29;95930.87;4406386;32;20188;-62
2023/10/10 12:35:24;;;;;;;3.53;1.97;;;;;;;21.15;46.20;95933.69;4395222;32;20188;-62
2023/10/10 12:38:01;;;;;;;2.50;1.60;;;;;;;21.14;45.87;95925.94;4389219;32;20192;-61
2023/10/10 12:40:33;;;;;;;4.40;2.00;;;;;;;21.23;45.67;95924.66;4365821;32;20172;-62
2023/10/10 12:43:01;;;;;;;2.97;1.73;;;;;;;21.24;46.21;95925.44;4392949;32;20188;-62
2023/10/10 12:45:32;;;;;;;15.27;1.60;;;;;;;21.23;45.63;95929.28;4381908;32;20200;-63
2023/10/10 12:48:02;;;;;;;3.40;2.07;;;;;;;21.15;47.28;95925.59;4389382;32;20180;-62
2023/10/10 12:50:30;;;;;;;4.57;1.83;;;;;;;21.15;45.55;95917.50;4398265;32;20183;-62
2023/10/10 12:53:07;;;;;;;0.80;0.80;;;;;;;21.20;46.00;95921.84;4381025;32;20202;-63
2023/10/10 12:55:48;;;;;;;6.60;1.90;;;;;;;21.15;46.32;95911.31;4388050;32;20188;-61
2023/10/10 12:58:30;;;;;;;1.13;1.13;;;;;;;21.17;46.46;95915.25;4406719;32;20256;-62
2023/10/10 13:00:58;;;;;;;3.87;1.60;;;;;;;21.17;46.86;95914.44;4317521;32;20180;-61
2023/10/10 13:03:28;;;;;;;4.00;1.80;;;;;;;21.37;46.28;95905.34;4389220;32;20257;-61
2023/10/10 13:05:59;;;;;;;5.40;1.83;;;;;;;21.41;46.47;95908.13;4365068;32;20184;-61
2023/10/10 13:08:48;;;;;;;1.73;1.43;;;;;;;21.24;47.60;95909.25;4365463;32;20208;-61
2023/10/10 13:11:15;;;;;;;2.10;1.40;;;;;;;21.26;47.53;95905.06;4373531;32;20247;-62
2023/10/10 13:13:45;;;;;;;1.53;1.17;;;;;;;21.35;47.14;95894.13;4391098;32;20188;-62
2023/10/10 13:19:24;;;;;;;1.80;1.37;;;;;;;21.39;47.79;95899.63;4318452;32;20245;-61
2023/10/10 13:21:52;;;;;;;0.50;0.50;;;;;;;21.36;48.81;95894.91;4313998;32;20238;-59
2023/10/10 13:24:20;;;;;;;18.37;1.70;;;;;;;21.33;47.77;95892.91;4386162;32;20243;-61
2023/10/10 13:26:49;;;;;;;1.07;1.07;;;;;;;21.34;47.88;95892.56;4381061;32;20210;-61
2023/10/10 13:29:18;;;;;;;1.50;0.97;;;;;;;21.31;48.00;95895.94;4401864;32;20206;-61
2023/10/10 13:31:46;;;;;;;2.00;1.13;;;;;;;21.38;48.55;95896.12;4382839;32;20229;-61
2023/10/10 13:34:22;;;;;;;3.00;1.37;;;;;;;21.38;47.57;95889.94;4378492;32;20228;-61
2023/10/10 13:36:49;;;;;;;6.17;1.93;;;;;;;21.41;47.25;95891.91;4386084;32;20244;-61
2023/10/10 13:39:33;;;;;;;1.70;0.70;;;;;;;21.41;48.07;95886.53;4396206;32;20199;-62
2023/10/10 13:42:00;;;;;;;4.43;2.00;;;;;;;21.33;48.38;95890.19;4384918;32;20240;-61
2023/10/10 13:44:27;;;;;;;2.33;1.37;;;;;;;21.29;49.29;95892.81;4405012;32;20172;-61
2023/10/10 13:46:54;;;;;;;1.33;1.23;;;;;;;21.31;49.04;95892.47;4377982;32;20235;-61
2023/10/10 13:49:24;;;;;;;1.93;1.00;;;;;;;21.32;48.57;95880.53;4401545;32;20196;-62
2023/10/10 13:51:53;;;;;;;2.27;1.40;;;;;;;21.36;49.83;95884.87;4391365;32;20202;-61
2023/10/10 13:54:19;;;;;;;1.13;1.03;;;;;;;21.37;49.46;95883.75;4404170;32;20231;-61
2023/10/10 13:56:46;;;;;;;1.23;1.23;;;;;;;21.31;50.12;95878.97;4370678;32;20234;-62
2023/10/10 13:59:16;;;;;;;1.50;1.20;;;;;;;21.29;49.76;95878.53;4390682;32;20181;-62
2023/10/10 14:01:44;;;;;;;3.90;1.53;;;;;;;21.29;50.22;95876.59;4393689;32;20274;-61
2023/10/10 14:04:24;;;;;;;2.53;1.87;;;;;;;21.31;49.82;95871.66;4382944;32;20291;-61
2023/10/10 14:06:54;;;;;;;1.17;1.10;;;;;;;21.32;50.36;95869.72;4403022;32;20223;-61
2023/10/10 14:09:25;;;;;;;13.47;1.67;;;;;;;21.21;52.14;95878.34;4402721;32;20188;-61
2023/10/10 14:11:56;;;;;;;7.23;2.30;;;;;;;21.27;50.63;95881.56;4390497;32;20277;-60
2023/10/10 14:14:22;;;;;;;1.73;1.27;;;;;;;21.22;50.61;95869.09;4390233;32;20193;-62
2023/10/10 14:16:51;;;;;;;1.77;1.67;;;;;;;21.21;50.73;95866.75;4407733;32;20233;-61
2023/10/10 14:19:17;;;;;;;1.63;1.20;;;;;;;21.27;50.27;95868.84;4403367;32;20228;-61
2023/10/10 14:21:47;;;;;;;4.70;1.30;;;;;;;21.26;49.13;95867.28;4376301;32;20288;-61
2023/10/10 14:24:18;;;;;;;9.00;1.83;;;;;;;21.30;49.26;95869.28;4384167;32;20293;-62
2023/10/10 14:26:48;;;;;;;4.33;2.17;;;;;;;21.28;49.79;95866.94;4372568;32;20210;-62
2023/10/10 14:29:16;;;;;;;6.63;1.40;;;;;;;21.31;49.63;95868.94;4388316;32;20195;-61
2023/10/10 14:31:45;;;;;;;1.13;1.13;;;;;;;21.31;48.91;95860.06;4375077;32;20241;-62
2023/10/10 14:34:38;;;;;;;0.90;0.90;;;;;;;21.40;48.32;95860.69;4405671;32;20294;-62
2023/10/10 14:37:00;;;;;;;1.97;1.30;;;;;;;21.52;47.81;95863.28;4379470;32;20173;-62
2023/10/10 14:39:44;;;;;;;1.07;1.03;;;;;;;21.48;48.10;95867.81;4398015;32;20192;-62
2023/10/10 14:42:10;;;;;;;2.63;1.23;;;;;;;21.44;49.07;95864.22;4404945;32;20419;-61
2023/10/10 14:44:40;;;;;;;1.50;1.43;;;;;;;21.40;48.50;95866.09;4392246;32;20206;-61
2023/10/10 14:47:09;;;;;;;1.43;1.30;;;;;;;21.39;48.48;95870.69;4400504;32;20237;-62
2023/10/10 14:49:38;;;;;;;6.07;1.77;;;;;;;21.35;49.35;95875.22;4392538;32;20189;-62
2023/10/10 14:52:06;;;;;;;2.53;1.37;;;;;;;21.36;49.71;95873.31;4389689;32;20188;-61
2023/10/10 14:54:48;;;;;;;0.77;0.77;;;;;;;21.45;47.29;95865.81;4393974;32;20231;-62
2023/10/10 14:57:24;;;;;;;1.37;0.93;;;;;;;21.37;48.18;95866.78;4383450;32;20256;-61